Lafayette, Colorado
Current Conditions -  °F | °C
As of 9:15 PM on Tuesday 25 Nov 2014 (Local Time) from KEIK Reporting Station
Broken Clouds Broken Clouds  
Wind Chill: 26°   Ceiling: 9500
Heat Index: 35°   Visibility: 10mi
Dew Point: 31°   Wind: 13mph
Humidity: 85%   Direction: 80°E
Pressure: 30.05"   Gusts: 23mph
Location:  39.99°N, 105.09°W
Report Text: KEIK 260415Z AUTO 08011G20KT 10SM SCT011 BKN095 BKN120 02/M01 A3005 RMK AO2 T00151008
Loading
Personal Weather Stations






























Interactive Weather Map New forecast layout! Learn more

10-Day Weather Forecast

Advertisements
Track Severe Weather on mobile